createdAt,value
2022-10-18T00:00:59.961Z,91.60
2022-10-18T00:03:46.938Z,91.70
2022-10-18T00:06:33.855Z,91.70
2022-10-18T00:09:21.208Z,91.70
2022-10-18T00:12:09.414Z,91.80
2022-10-18T00:14:56.298Z,91.80
2022-10-18T00:17:43.377Z,91.80
2022-10-18T00:20:30.665Z,91.80
2022-10-18T00:23:17.478Z,91.80
2022-10-18T00:26:06.806Z,91.80
2022-10-18T00:28:58.381Z,91.90
2022-10-18T00:31:45.783Z,91.90
2022-10-18T00:34:32.805Z,91.90
2022-10-18T00:37:20.204Z,91.90
2022-10-18T00:40:08.452Z,91.90
2022-10-18T00:42:55.227Z,91.90
2022-10-18T00:45:43.783Z,91.80
2022-10-18T00:48:30.685Z,91.90
2022-10-18T00:51:19.833Z,91.80
2022-10-18T00:54:07.017Z,91.90
2022-10-18T00:56:54.381Z,91.90
2022-10-18T00:59:42.858Z,92.00
2022-10-18T01:02:31.389Z,92.00
2022-10-18T01:05:20.499Z,92.00
2022-10-18T01:08:29.813Z,92.00
2022-10-18T01:11:35.221Z,92.00
2022-10-18T01:14:35.744Z,92.00
2022-10-18T01:17:30.960Z,92.00
2022-10-18T01:20:50.052Z,92.00
2022-10-18T01:24:00.362Z,92.00
2022-10-18T01:27:10.915Z,92.00
2022-10-18T01:30:24.714Z,92.10
2022-10-18T01:33:22.432Z,92.20
2022-10-18T01:36:20.288Z,92.20
2022-10-18T01:39:10.834Z,92.20
2022-10-18T01:41:59.746Z,92.10
2022-10-18T01:44:48.468Z,92.10
2022-10-18T01:47:37.442Z,92.10
2022-10-18T01:50:36.418Z,92.10
2022-10-18T01:53:28.226Z,92.10
2022-10-18T01:56:32.509Z,92.10
2022-10-18T01:59:32.084Z,92.10
2022-10-18T02:02:32.869Z,92.10
2022-10-18T02:05:27.177Z,92.10
2022-10-18T02:08:26.581Z,92.20
2022-10-18T02:11:16.931Z,92.20
2022-10-18T02:14:09.064Z,92.20
2022-10-18T02:17:00.721Z,92.20
2022-10-18T02:19:51.582Z,92.30
2022-10-18T02:22:42.721Z,92.30
2022-10-18T02:25:35.154Z,92.30
2022-10-18T02:31:17.232Z,92.40
2022-10-18T02:34:09.060Z,92.50
2022-10-18T02:36:59.377Z,92.50
2022-10-18T02:39:50.252Z,92.40
2022-10-18T02:42:40.752Z,92.40
2022-10-18T02:45:28.648Z,92.50
2022-10-18T02:48:15.893Z,92.50
2022-10-18T02:51:03.049Z,92.50
2022-10-18T02:53:49.843Z,92.50
2022-10-18T02:56:37.557Z,92.50
2022-10-18T02:59:26.225Z,92.50
2022-10-18T03:02:13.224Z,92.60
2022-10-18T03:05:00.389Z,92.70
2022-10-18T03:07:47.729Z,92.60
2022-10-18T03:10:34.800Z,92.70
2022-10-18T03:13:21.808Z,92.70
2022-10-18T03:16:10.485Z,92.70
2022-10-18T03:18:57.707Z,92.70
2022-10-18T03:21:44.894Z,92.70
2022-10-18T03:24:31.784Z,92.80
2022-10-18T03:27:18.642Z,92.80
2022-10-18T03:30:05.925Z,92.90
2022-10-18T03:32:55.323Z,93.00
2022-10-18T03:35:42.470Z,93.10
2022-10-18T03:38:29.663Z,93.10
2022-10-18T03:41:16.873Z,93.10
2022-10-18T03:44:03.682Z,93.10
2022-10-18T03:46:50.742Z,93.10
2022-10-18T03:49:39.050Z,93.10
2022-10-18T03:52:26.055Z,93.10
2022-10-18T03:55:13.312Z,93.10
2022-10-18T03:58:00.378Z,93.00
2022-10-18T04:00:47.268Z,93.00
2022-10-18T04:03:34.491Z,93.00
2022-10-18T04:06:22.847Z,93.00
2022-10-18T04:09:10.479Z,93.10
2022-10-18T04:11:57.535Z,93.10
2022-10-18T04:14:44.868Z,93.10
2022-10-18T04:17:32.102Z,93.10
2022-10-18T04:20:19.800Z,93.20
2022-10-18T04:23:08.518Z,93.20
2022-10-18T04:25:55.700Z,93.10
2022-10-18T04:28:42.751Z,93.10
2022-10-18T04:31:29.949Z,93.10
2022-10-18T04:34:17.151Z,93.10
2022-10-18T04:37:04.670Z,93.10
2022-10-18T04:39:53.861Z,93.10
2022-10-18T04:42:41.156Z,93.10
2022-10-18T04:45:28.471Z,93.00
2022-10-18T04:48:16.026Z,93.10
2022-10-18T04:51:03.335Z,93.10
2022-10-18T04:53:50.274Z,93.10
2022-10-18T04:56:39.249Z,93.10
2022-10-18T04:59:26.447Z,93.20
2022-10-18T05:02:13.653Z,93.30
2022-10-18T05:05:00.898Z,93.40
2022-10-18T05:07:48.185Z,93.40
2022-10-18T05:10:35.321Z,93.40
2022-10-18T05:13:23.731Z,93.50
2022-10-18T05:16:10.935Z,93.50
2022-10-18T05:18:57.938Z,93.60
2022-10-18T05:21:45.026Z,93.60
2022-10-18T05:24:32.139Z,93.70
2022-10-18T05:27:19.398Z,93.80
2022-10-18T05:30:08.190Z,93.90
2022-10-18T05:32:55.317Z,94.00
2022-10-18T05:35:42.806Z,94.10
2022-10-18T05:38:31.581Z,94.20
2022-10-18T05:41:18.851Z,94.30
2022-10-18T05:44:07.297Z,94.60
2022-10-18T05:46:56.043Z,94.30
2022-10-18T05:49:43.233Z,94.40
2022-10-18T05:52:30.919Z,94.40
2022-10-18T05:55:18.265Z,94.40
2022-10-18T05:58:05.635Z,94.50
2022-10-18T06:00:53.064Z,94.50
2022-10-18T06:03:41.410Z,94.60
2022-10-18T06:06:28.737Z,94.60
2022-10-18T06:09:15.998Z,94.70
2022-10-18T06:12:03.177Z,94.70
2022-10-18T06:14:50.468Z,94.80
2022-10-18T06:17:38.177Z,94.90
2022-10-18T06:20:27.438Z,94.80
2022-10-18T06:23:14.393Z,94.90
2022-10-18T06:26:02.799Z,94.90
2022-10-18T06:28:51.996Z,94.90
2022-10-18T06:31:39.663Z,94.90
2022-10-18T06:34:27.471Z,95.00
2022-10-18T06:37:16.317Z,95.00
2022-10-18T06:40:03.830Z,94.90
2022-10-18T06:43:00.570Z,94.90
2022-10-18T06:45:58.740Z,94.80
2022-10-18T06:48:46.962Z,94.80
2022-10-18T06:51:36.639Z,94.70
2022-10-18T06:54:25.595Z,94.70
2022-10-18T06:57:13.678Z,94.80
2022-10-18T07:00:01.665Z,94.70
2022-10-18T07:02:49.483Z,94.70
2022-10-18T07:05:37.444Z,94.70
2022-10-18T07:08:24.825Z,94.70
2022-10-18T07:11:17.323Z,94.50
2022-10-18T07:14:05.437Z,94.50
2022-10-18T07:16:52.374Z,94.50
2022-10-18T07:19:39.209Z,94.50
2022-10-18T07:22:30.165Z,94.50
2022-10-18T07:25:17.856Z,94.40
2022-10-18T07:28:06.537Z,94.20
2022-10-18T07:30:54.121Z,94.30
2022-10-18T07:33:43.330Z,94.10
2022-10-18T07:36:30.324Z,94.30
2022-10-18T07:39:17.565Z,94.30
2022-10-18T07:42:04.399Z,94.10
2022-10-18T07:44:52.610Z,93.90
2022-10-18T07:47:39.783Z,93.90
2022-10-18T07:50:27.485Z,93.80
2022-10-18T07:53:14.530Z,93.80
2022-10-18T07:56:05.824Z,93.60
2022-10-18T07:58:57.931Z,93.60
2022-10-18T08:01:47.118Z,93.50
2022-10-18T08:04:37.431Z,93.50
2022-10-18T08:07:25.686Z,93.20
2022-10-18T08:10:13.264Z,93.10
2022-10-18T08:13:01.019Z,92.80
2022-10-18T08:15:49.085Z,92.60
2022-10-18T08:18:38.874Z,92.30
2022-10-18T08:21:26.912Z,92.20
2022-10-18T08:24:14.966Z,92.00
2022-10-18T08:27:03.557Z,91.80
2022-10-18T08:29:51.206Z,91.70
2022-10-18T08:32:39.249Z,91.90
2022-10-18T08:35:28.527Z,91.40
2022-10-18T08:38:18.185Z,91.20
2022-10-18T08:41:27.679Z,91.30
2022-10-18T08:44:21.180Z,91.00
2022-10-18T08:47:13.180Z,91.10
2022-10-18T08:50:04.455Z,91.10
2022-10-18T08:52:59.871Z,90.80
2022-10-18T08:55:52.640Z,90.80
2022-10-18T08:58:40.673Z,90.40
2022-10-18T09:01:39.494Z,90.30
2022-10-18T09:04:40.322Z,90.50
2022-10-18T09:07:46.816Z,90.00
2022-10-18T09:10:45.983Z,89.90
2022-10-18T09:14:04.585Z,89.30
2022-10-18T09:17:02.456Z,88.50
2022-10-18T09:20:04.693Z,88.30
2022-10-18T09:22:58.250Z,87.70
2022-10-18T09:25:48.210Z,87.50
2022-10-18T09:28:44.584Z,87.00
2022-10-18T09:31:46.658Z,86.80
2022-10-18T09:34:41.157Z,87.40
2022-10-18T09:37:33.810Z,86.00
2022-10-18T09:40:25.982Z,85.60
2022-10-18T09:43:20.063Z,85.10
2022-10-18T09:46:09.673Z,84.10
2022-10-18T09:49:00.880Z,83.50
2022-10-18T09:51:53.112Z,83.10
2022-10-18T09:54:45.318Z,82.60
2022-10-18T09:57:41.875Z,82.00
2022-10-18T10:00:34.648Z,82.10
2022-10-18T10:03:21.906Z,81.80
2022-10-18T10:06:26.457Z,81.50
2022-10-18T10:09:17.767Z,80.50
2022-10-18T10:12:07.351Z,79.40
2022-10-18T10:14:54.589Z,78.20
2022-10-18T10:17:44.908Z,78.10
2022-10-18T10:20:37.765Z,77.10
2022-10-18T10:23:28.500Z,76.90
2022-10-18T10:26:25.420Z,76.30
2022-10-18T10:29:44.825Z,76.90
2022-10-18T10:32:44.997Z,76.50
2022-10-18T10:38:44.094Z,74.70
2022-10-18T10:44:22.689Z,72.90
2022-10-18T10:47:35.639Z,72.60
2022-10-18T10:50:27.144Z,73.70
2022-10-18T10:53:30.169Z,71.30
2022-10-18T10:56:23.639Z,70.30
2022-10-18T10:59:14.627Z,70.10
2022-10-18T11:02:21.997Z,71.00
2022-10-18T11:05:24.984Z,69.00
2022-10-18T11:08:14.270Z,68.40
2022-10-18T11:11:16.967Z,67.80
2022-10-18T11:14:25.196Z,66.90
2022-10-18T11:17:23.745Z,67.00
2022-10-18T11:20:21.139Z,65.70
2022-10-18T11:23:09.749Z,65.70
2022-10-18T11:26:11.501Z,65.10
2022-10-18T11:29:15.186Z,64.60
2022-10-18T11:32:13.447Z,63.20
2022-10-18T11:35:17.225Z,63.30
2022-10-18T11:38:13.945Z,63.60
2022-10-18T11:41:17.691Z,64.40
2022-10-18T11:44:11.432Z,63.30
2022-10-18T11:47:05.883Z,63.40
2022-10-18T11:50:05.261Z,62.60
2022-10-18T11:53:00.084Z,62.70
2022-10-18T11:55:58.252Z,63.90
2022-10-18T11:59:03.714Z,63.20
2022-10-18T12:02:04.291Z,61.70
2022-10-18T12:05:22.050Z,61.80
2022-10-18T12:08:08.408Z,61.20
2022-10-18T12:11:06.609Z,62.50
2022-10-18T12:13:58.998Z,62.20
2022-10-18T12:16:51.338Z,61.90
2022-10-18T12:19:41.900Z,61.00
2022-10-18T12:22:36.467Z,59.80
2022-10-18T12:25:23.751Z,59.80
2022-10-18T12:28:24.686Z,59.90
2022-10-18T12:31:23.452Z,59.80
2022-10-18T12:34:31.663Z,60.40
2022-10-18T12:37:39.814Z,60.60
2022-10-18T12:40:36.127Z,60.30
2022-10-18T12:43:26.467Z,59.60
2022-10-18T12:46:14.052Z,60.30
2022-10-18T12:49:06.107Z,60.90
2022-10-18T12:51:55.789Z,59.80
2022-10-18T12:55:01.511Z,59.10
2022-10-18T12:58:05.169Z,58.60
2022-10-18T13:00:55.587Z,58.40
2022-10-18T13:03:55.390Z,58.10
2022-10-18T13:07:12.494Z,58.10
2022-10-18T13:10:20.974Z,57.90
2022-10-18T13:13:42.175Z,58.10
2022-10-18T13:16:37.521Z,57.80
2022-10-18T13:19:32.018Z,57.90
2022-10-18T13:22:29.425Z,57.60
2022-10-18T13:25:22.708Z,57.70
2022-10-18T13:28:19.140Z,57.30
2022-10-18T13:31:18.620Z,57.90
2022-10-18T13:34:33.333Z,58.30
2022-10-18T13:37:25.480Z,58.10
2022-10-18T13:40:24.832Z,58.40
2022-10-18T13:43:41.784Z,58.20
2022-10-18T13:46:28.514Z,58.70
2022-10-18T13:49:33.353Z,58.70
2022-10-18T13:52:34.287Z,58.30
2022-10-18T13:55:43.661Z,58.20
2022-10-18T13:58:49.163Z,58.50
2022-10-18T14:02:22.388Z,58.70
2022-10-18T14:05:32.411Z,58.70
2022-10-18T14:08:19.037Z,59.20
2022-10-18T14:11:15.080Z,59.20
2022-10-18T14:14:09.987Z,59.70
2022-10-18T14:17:04.660Z,59.50
2022-10-18T14:19:58.053Z,59.50
2022-10-18T14:22:47.702Z,59.70
2022-10-18T14:25:37.459Z,60.10
2022-10-18T14:28:36.280Z,60.90
2022-10-18T14:31:34.621Z,61.80
2022-10-18T14:34:22.993Z,63.10
2022-10-18T14:37:29.299Z,62.70
2022-10-18T14:40:33.115Z,62.40
2022-10-18T14:43:21.447Z,63.40
2022-10-18T14:46:17.811Z,63.00
2022-10-18T14:49:07.461Z,62.50
2022-10-18T14:51:57.049Z,61.40
2022-10-18T14:54:44.582Z,61.20
2022-10-18T14:57:35.246Z,61.40
2022-10-18T15:00:36.325Z,62.00
2022-10-18T15:03:25.342Z,62.10
2022-10-18T15:06:18.151Z,62.30
2022-10-18T15:09:05.605Z,62.80
2022-10-18T15:11:58.076Z,63.00
2022-10-18T15:14:46.687Z,63.30
2022-10-18T15:17:35.591Z,63.10
2022-10-18T15:20:26.156Z,64.00
2022-10-18T15:23:24.320Z,63.80
2022-10-18T15:26:14.972Z,63.80
2022-10-18T15:29:04.551Z,64.10
2022-10-18T15:31:54.404Z,64.40
2022-10-18T15:34:41.394Z,64.60
2022-10-18T15:37:38.560Z,64.50
2022-10-18T15:40:37.085Z,64.90
2022-10-18T15:43:38.896Z,65.30
2022-10-18T15:46:32.545Z,65.20
2022-10-18T15:49:51.083Z,65.70
2022-10-18T15:52:38.998Z,65.70
2022-10-18T15:55:47.708Z,66.20
2022-10-18T15:58:45.377Z,66.50
2022-10-18T16:01:37.792Z,66.60
2022-10-18T16:04:26.994Z,66.80
2022-10-18T16:07:14.055Z,67.30
2022-10-18T16:10:01.042Z,67.40
2022-10-18T16:12:49.633Z,67.40
2022-10-18T16:15:36.713Z,67.60
2022-10-18T16:18:26.325Z,68.10
2022-10-18T16:21:23.784Z,68.50
2022-10-18T16:24:10.846Z,69.10
2022-10-18T16:26:57.933Z,69.80
2022-10-18T16:29:46.556Z,70.40
2022-10-18T16:32:33.739Z,71.20
2022-10-18T16:35:21.525Z,72.10
2022-10-18T16:38:19.799Z,73.40
2022-10-18T16:41:09.532Z,74.30
2022-10-18T16:43:57.344Z,75.30
2022-10-18T16:46:51.064Z,75.90
2022-10-18T16:49:42.260Z,76.90
2022-10-18T16:55:21.629Z,77.40
2022-10-18T16:58:17.983Z,78.70
2022-10-18T17:01:08.076Z,79.50
2022-10-18T17:03:59.048Z,81.00
2022-10-18T17:06:47.776Z,82.30
2022-10-18T17:09:37.424Z,81.80
2022-10-18T17:12:26.827Z,82.30
2022-10-18T17:15:17.197Z,82.90
2022-10-18T17:18:06.118Z,83.60
2022-10-18T17:20:57.109Z,84.20
2022-10-18T17:23:46.011Z,84.70
2022-10-18T17:26:34.800Z,84.90
2022-10-18T17:29:24.952Z,85.70
2022-10-18T17:32:12.442Z,85.90
2022-10-18T17:35:02.949Z,86.00
2022-10-18T17:37:53.626Z,86.40
2022-10-18T17:40:43.024Z,86.80
2022-10-18T17:43:30.912Z,87.00
2022-10-18T17:46:19.796Z,87.30
2022-10-18T17:49:06.875Z,87.70
2022-10-18T17:51:53.806Z,88.20
2022-10-18T17:54:42.377Z,88.20
2022-10-18T17:57:30.007Z,88.50
2022-10-18T18:00:17.221Z,88.70
2022-10-18T18:03:04.558Z,88.70
2022-10-18T18:05:51.831Z,88.60
2022-10-18T18:08:38.882Z,88.80
2022-10-18T18:11:29.750Z,88.70
2022-10-18T18:14:17.043Z,88.90
2022-10-18T18:17:04.223Z,89.10
2022-10-18T18:19:51.323Z,89.20
2022-10-18T18:22:41.857Z,89.40
2022-10-18T18:25:30.102Z,89.70
2022-10-18T18:28:18.406Z,90.00
2022-10-18T18:31:08.135Z,90.50
2022-10-18T18:33:56.431Z,90.60
2022-10-18T18:36:44.708Z,90.40
2022-10-18T18:39:35.291Z,90.40
2022-10-18T18:42:23.217Z,90.50
2022-10-18T18:45:11.832Z,90.50
2022-10-18T18:47:58.730Z,90.60
2022-10-18T18:50:50.179Z,90.50
2022-10-18T18:53:38.541Z,90.60
2022-10-18T18:56:29.267Z,90.70
2022-10-18T18:59:17.122Z,90.80
2022-10-18T19:02:05.803Z,90.80
2022-10-18T19:04:52.647Z,91.00
2022-10-18T19:07:39.935Z,91.00
2022-10-18T19:10:27.592Z,91.10
2022-10-18T19:13:14.819Z,91.10
2022-10-18T19:16:19.181Z,91.10
2022-10-18T19:19:11.517Z,91.10
2022-10-18T19:22:00.578Z,91.20
2022-10-18T19:24:47.718Z,91.20
2022-10-18T19:27:35.510Z,91.10
2022-10-18T19:30:23.080Z,91.10
2022-10-18T19:33:10.991Z,91.00
2022-10-18T19:35:59.491Z,90.90
2022-10-18T19:38:46.803Z,90.90
2022-10-18T19:41:33.881Z,90.80
2022-10-18T19:44:21.393Z,90.90
2022-10-18T19:47:11.897Z,91.00
2022-10-18T19:49:59.287Z,90.90
2022-10-18T19:52:47.457Z,90.80
2022-10-18T19:55:35.243Z,90.70
2022-10-18T19:58:22.649Z,90.70
2022-10-18T20:01:09.727Z,90.60
2022-10-18T20:03:57.090Z,90.70
2022-10-18T20:06:44.445Z,90.80
2022-10-18T20:09:32.808Z,90.80
2022-10-18T20:12:19.739Z,90.80
2022-10-18T20:15:09.114Z,90.80
2022-10-18T20:17:57.740Z,90.80
2022-10-18T20:20:48.070Z,91.00
2022-10-18T20:23:38.472Z,91.00
2022-10-18T20:26:27.513Z,91.00
2022-10-18T20:29:14.818Z,91.00
2022-10-18T20:32:02.332Z,91.00
2022-10-18T20:34:49.219Z,91.00
2022-10-18T20:37:36.372Z,91.20
2022-10-18T20:40:23.325Z,91.20
2022-10-18T20:43:11.704Z,91.30
2022-10-18T20:45:59.320Z,91.40
2022-10-18T20:48:46.350Z,91.40
2022-10-18T20:51:34.491Z,91.90
2022-10-18T20:54:21.359Z,91.60
2022-10-18T20:57:08.374Z,91.70
2022-10-18T20:59:56.937Z,91.70
2022-10-18T21:02:43.823Z,91.70
2022-10-18T21:05:31.732Z,91.70
2022-10-18T21:08:18.880Z,91.70
2022-10-18T21:11:06.246Z,92.20
2022-10-18T21:13:54.743Z,91.60
2022-10-18T21:16:44.473Z,91.60
2022-10-18T21:19:31.658Z,91.60
2022-10-18T21:22:18.495Z,91.70
2022-10-18T21:25:05.847Z,91.60
2022-10-18T21:27:52.898Z,91.70
2022-10-18T21:30:40.206Z,91.70
2022-10-18T21:33:28.591Z,91.70
2022-10-18T21:36:16.272Z,91.70
2022-10-18T21:39:04.292Z,91.60
2022-10-18T21:41:51.818Z,91.60
2022-10-18T21:44:39.182Z,91.60
2022-10-18T21:47:26.424Z,91.60
2022-10-18T21:50:14.820Z,91.60
2022-10-18T21:53:02.165Z,91.70
2022-10-18T21:55:52.642Z,91.70
2022-10-18T21:58:40.414Z,91.80
2022-10-18T22:01:29.531Z,91.80
2022-10-18T22:04:20.983Z,91.90
2022-10-18T22:07:09.236Z,91.90
2022-10-18T22:09:56.253Z,92.00
2022-10-18T22:12:43.609Z,92.00
2022-10-18T22:15:30.668Z,92.10
2022-10-18T22:18:18.299Z,92.20
2022-10-18T22:21:08.105Z,92.30
2022-10-18T22:23:58.569Z,92.40
2022-10-18T22:26:46.768Z,92.50
2022-10-18T22:29:34.048Z,92.60
2022-10-18T22:32:21.209Z,92.70
2022-10-18T22:35:08.876Z,92.70
2022-10-18T22:37:55.802Z,92.80
2022-10-18T22:40:44.576Z,92.70
2022-10-18T22:43:31.714Z,92.70
2022-10-18T22:46:19.274Z,92.60
2022-10-18T22:49:06.348Z,92.60
2022-10-18T22:51:53.705Z,92.60
2022-10-18T22:54:40.856Z,92.70
2022-10-18T22:57:31.004Z,92.60
2022-10-18T23:00:18.033Z,92.60
2022-10-18T23:03:04.870Z,92.60
2022-10-18T23:05:52.119Z,92.60
2022-10-18T23:08:38.996Z,92.70
2022-10-18T23:11:27.179Z,92.70
2022-10-18T23:14:15.923Z,92.80
2022-10-18T23:17:03.108Z,92.90
2022-10-18T23:19:50.313Z,93.00
2022-10-18T23:22:37.392Z,93.00
2022-10-18T23:25:24.397Z,93.10
2022-10-18T23:28:11.520Z,93.20
2022-10-18T23:30:59.929Z,93.30
2022-10-18T23:33:48.604Z,93.40
2022-10-18T23:36:35.888Z,93.40
2022-10-18T23:39:25.783Z,93.50
2022-10-18T23:42:13.196Z,93.50
2022-10-18T23:45:00.146Z,93.70
2022-10-18T23:47:51.098Z,93.80
2022-10-18T23:50:38.496Z,93.80
2022-10-18T23:53:25.841Z,94.00
2022-10-18T23:56:15.347Z,94.00
2022-10-18T23:59:02.657Z,94.10
